createdAt,value
2019-05-23T00:01:23.956Z,100318.08
2019-05-23T00:04:21.936Z,100319.99
2019-05-23T00:07:14.261Z,100321.05
2019-05-23T00:10:04.319Z,100315.61
2019-05-23T00:12:55.356Z,100314.98
2019-05-23T00:15:42.654Z,100321.80
2019-05-23T00:18:15.573Z,100321.53
2019-05-23T00:20:47.629Z,100324.77
2019-05-23T00:23:20.389Z,100327.14
2019-05-23T00:25:53.981Z,100323.55
2019-05-23T00:28:26.078Z,100327.55
2019-05-23T00:31:02.385Z,100327.55
2019-05-23T00:33:35.396Z,100328.59
2019-05-23T00:36:07.639Z,100329.53
2019-05-23T00:38:40.451Z,100326.51
2019-05-23T00:41:13.874Z,100319.36
2019-05-23T00:43:46.453Z,100322.70
2019-05-23T00:46:19.914Z,100316.05
2019-05-23T00:48:52.423Z,100313.40
2019-05-23T00:51:26.070Z,100311.31
2019-05-23T00:53:57.878Z,100312.64
2019-05-23T00:56:30.137Z,100309.02
2019-05-23T00:59:02.606Z,100302.84
2019-05-23T01:01:37.835Z,100303.63
2019-05-23T01:04:11.180Z,100305.25
2019-05-23T01:06:44.610Z,100304.75
2019-05-23T01:09:19.948Z,100295.55
2019-05-23T01:11:51.776Z,100294.40
2019-05-23T01:14:24.134Z,100292.77
2019-05-23T01:16:56.562Z,100291.28
2019-05-23T01:19:28.312Z,100287.00
2019-05-23T01:22:02.009Z,100281.51
2019-05-23T01:24:36.425Z,100268.58
2019-05-23T01:27:09.401Z,100274.11
2019-05-23T01:29:49.753Z,100272.39
2019-05-23T01:32:53.367Z,100275.04
2019-05-23T01:35:28.600Z,100273.12
2019-05-23T01:38:04.185Z,100266.87
2019-05-23T01:40:36.387Z,100265.90
2019-05-23T01:43:09.712Z,100266.87
2019-05-23T01:45:42.279Z,100263.66
2019-05-23T01:48:15.645Z,100265.17
2019-05-23T01:50:47.474Z,100261.16
2019-05-23T01:53:19.729Z,100258.91
2019-05-23T01:55:53.333Z,100258.63
2019-05-23T01:58:25.336Z,100264.69
2019-05-23T02:00:57.169Z,100271.02
2019-05-23T02:03:29.459Z,100266.05
2019-05-23T02:06:01.899Z,100272.96
2019-05-23T02:08:35.599Z,100271.34
2019-05-23T02:11:07.328Z,100272.13
2019-05-23T02:13:40.765Z,100268.95
2019-05-23T02:16:12.710Z,100273.51
2019-05-23T02:18:45.439Z,100260.72
2019-05-23T02:21:17.962Z,100256.42
2019-05-23T02:23:50.385Z,100258.27
2019-05-23T02:26:24.298Z,100264.04
2019-05-23T02:28:56.261Z,100258.63
2019-05-23T02:31:28.175Z,100267.81
2019-05-23T02:34:00.515Z,100264.41
2019-05-23T02:36:32.586Z,100272.19
2019-05-23T02:39:38.827Z,100272.75
2019-05-23T02:42:24.311Z,100277.95
2019-05-23T02:44:57.075Z,100278.42
2019-05-23T02:47:52.245Z,100281.09
2019-05-23T02:50:32.728Z,100282.61
2019-05-23T02:53:08.169Z,100281.56
2019-05-23T02:55:40.894Z,100281.53
2019-05-23T02:58:22.919Z,100276.03
2019-05-23T03:01:28.347Z,100287.55
2019-05-23T03:04:05.946Z,100289.59
2019-05-23T03:06:38.323Z,100287.14
2019-05-23T03:09:12.088Z,100277.32
2019-05-23T03:11:49.454Z,100280.36
2019-05-23T03:14:22.820Z,100280.17
2019-05-23T03:16:54.616Z,100284.33
2019-05-23T03:19:39.612Z,100283.48
2019-05-23T03:22:45.109Z,100281.98
2019-05-23T03:26:04.195Z,100272.22
2019-05-23T03:28:40.401Z,100277.53
2019-05-23T03:31:30.071Z,100278.92
2019-05-23T03:33:55.034Z,100287.69
2019-05-23T03:36:27.478Z,100285.03
2019-05-23T03:38:59.428Z,100279.61
2019-05-23T03:41:32.246Z,100275.72
2019-05-23T03:44:05.144Z,100273.52
2019-05-23T03:46:42.082Z,100274.84
2019-05-23T03:49:15.186Z,100274.28
2019-05-23T03:51:47.106Z,100271.80
2019-05-23T03:54:19.282Z,100263.25
2019-05-23T03:56:51.093Z,100258.09
2019-05-23T03:59:24.565Z,100265.45
2019-05-23T04:01:56.393Z,100276.06
2019-05-23T04:04:28.277Z,100286.80
2019-05-23T04:07:03.357Z,100288.14
2019-05-23T04:09:35.109Z,100294.22
2019-05-23T04:12:08.073Z,100296.88
2019-05-23T04:14:41.778Z,100286.14
2019-05-23T04:17:14.458Z,100269.46
2019-05-23T04:19:48.527Z,100265.91
2019-05-23T04:22:22.440Z,100255.92
2019-05-23T04:24:54.198Z,100253.61
2019-05-23T04:27:29.106Z,100258.03
2019-05-23T04:30:04.043Z,100272.47
2019-05-23T04:32:36.046Z,100280.64
2019-05-23T04:35:09.574Z,100293.21
2019-05-23T04:37:41.697Z,100281.64
2019-05-23T04:40:17.720Z,100277.67
2019-05-23T04:42:49.447Z,100284.05
2019-05-23T04:45:21.671Z,100292.77
2019-05-23T04:47:54.119Z,100289.47
2019-05-23T04:50:25.910Z,100298.92
2019-05-23T04:52:58.899Z,100295.86
2019-05-23T04:55:30.694Z,100296.70
2019-05-23T04:58:04.575Z,100292.20
2019-05-23T05:00:36.220Z,100294.26
2019-05-23T05:03:09.069Z,100296.88
2019-05-23T05:05:41.318Z,100303.02
2019-05-23T05:08:13.567Z,100312.95
2019-05-23T05:10:47.590Z,100318.56
2019-05-23T05:13:19.736Z,100309.91
2019-05-23T05:15:53.243Z,100319.52
2019-05-23T05:18:27.064Z,100321.05
2019-05-23T05:21:00.441Z,100317.06
2019-05-23T05:23:32.317Z,100315.00
2019-05-23T05:26:04.210Z,100314.14
2019-05-23T05:28:35.968Z,100313.67
2019-05-23T05:31:07.681Z,100319.47
2019-05-23T05:33:42.745Z,100313.80
2019-05-23T05:36:14.472Z,100326.61
2019-05-23T05:38:47.156Z,100331.45
2019-05-23T05:41:18.891Z,100324.92
2019-05-23T05:43:50.854Z,100331.56
2019-05-23T05:46:23.969Z,100336.63
2019-05-23T05:48:56.006Z,100333.42
2019-05-23T05:51:28.335Z,100335.84
2019-05-23T05:54:00.319Z,100339.81
2019-05-23T05:56:32.156Z,100340.58
2019-05-23T05:59:04.049Z,100348.97
2019-05-23T06:01:39.113Z,100349.59
2019-05-23T06:04:11.043Z,100350.88
2019-05-23T06:06:50.243Z,100362.17
2019-05-23T06:09:25.020Z,100357.03
2019-05-23T06:11:56.905Z,100350.84
2019-05-23T06:14:28.965Z,100349.42
2019-05-23T06:17:01.646Z,100339.23
2019-05-23T06:19:33.464Z,100343.46
2019-05-23T06:22:05.760Z,100346.94
2019-05-23T06:24:48.076Z,100351.54
2019-05-23T06:27:14.824Z,100350.39
2019-05-23T06:29:46.767Z,100351.09
2019-05-23T06:32:21.482Z,100356.70
2019-05-23T06:34:55.030Z,100357.69
2019-05-23T06:37:27.712Z,100359.39
2019-05-23T06:40:01.350Z,100359.86
2019-05-23T06:42:33.225Z,100360.50
2019-05-23T06:45:08.190Z,100363.98
2019-05-23T06:47:40.887Z,100366.53
2019-05-23T06:50:16.340Z,100367.67
2019-05-23T06:52:50.907Z,100361.91
2019-05-23T06:55:24.421Z,100368.61
2019-05-23T06:57:56.170Z,100362.98
2019-05-23T07:00:29.206Z,100365.83
2019-05-23T07:03:01.561Z,100368.12
2019-05-23T07:05:37.803Z,100365.16
2019-05-23T07:08:09.580Z,100359.23
2019-05-23T07:10:44.903Z,100357.54
2019-05-23T07:13:19.897Z,100357.28
2019-05-23T07:15:51.631Z,100355.57
2019-05-23T07:18:24.854Z,100364.64
2019-05-23T07:20:57.913Z,100360.09
2019-05-23T07:23:29.744Z,100360.95
2019-05-23T07:26:01.521Z,100360.98
2019-05-23T07:28:33.325Z,100362.64
2019-05-23T07:31:05.694Z,100364.55
2019-05-23T07:33:37.964Z,100370.08
2019-05-23T07:36:10.422Z,100372.47
2019-05-23T07:38:42.197Z,100368.61
2019-05-23T07:41:14.514Z,100370.09
2019-05-23T07:43:46.274Z,100371.82
2019-05-23T07:46:21.295Z,100376.58
2019-05-23T07:48:53.796Z,100381.30
2019-05-23T07:51:25.751Z,100381.27
2019-05-23T07:54:05.021Z,100377.91
2019-05-23T07:56:37.389Z,100385.30
2019-05-23T07:59:10.160Z,100392.64
2019-05-23T08:01:43.558Z,100392.05
2019-05-23T08:04:21.871Z,100395.78
2019-05-23T08:06:49.372Z,100398.17
2019-05-23T08:09:22.662Z,100401.16
2019-05-23T08:11:54.975Z,100400.16
2019-05-23T08:14:29.193Z,100400.18
2019-05-23T08:17:01.140Z,100404.38
2019-05-23T08:19:48.480Z,100407.08
2019-05-23T08:22:06.868Z,100403.11
2019-05-23T08:24:38.607Z,100400.48
2019-05-23T08:27:10.399Z,100397.06
2019-05-23T08:29:42.494Z,100401.55
2019-05-23T08:32:14.845Z,100415.77
2019-05-23T08:34:46.882Z,100415.68
2019-05-23T08:37:18.681Z,100414.75
2019-05-23T08:39:50.384Z,100415.02
2019-05-23T08:42:22.504Z,100419.27
2019-05-23T08:44:55.719Z,100410.53
2019-05-23T08:47:27.850Z,100417.87
2019-05-23T08:50:00.011Z,100408.40
2019-05-23T08:52:33.653Z,100408.77
2019-05-23T08:55:17.510Z,100406.98
2019-05-23T08:57:49.665Z,100410.06
2019-05-23T09:00:22.087Z,100401.70
2019-05-23T09:02:58.029Z,100391.61
2019-05-23T09:05:30.781Z,100393.00
2019-05-23T09:08:04.233Z,100395.61
2019-05-23T09:10:36.421Z,100394.11
2019-05-23T09:13:08.788Z,100396.25
2019-05-23T09:15:40.719Z,100395.04
2019-05-23T09:18:12.744Z,100386.90
2019-05-23T09:20:44.764Z,100397.75
2019-05-23T09:23:16.755Z,100396.20
2019-05-23T09:25:48.501Z,100399.91
2019-05-23T09:28:21.431Z,100406.72
2019-05-23T09:30:54.929Z,100404.50
2019-05-23T09:33:26.765Z,100405.36
2019-05-23T09:35:59.266Z,100404.05
2019-05-23T09:38:31.071Z,100408.77
2019-05-23T09:41:02.821Z,100401.93
2019-05-23T09:43:34.594Z,100413.27
2019-05-23T09:46:06.446Z,100409.41
2019-05-23T09:48:38.320Z,100406.97
2019-05-23T09:51:11.895Z,100408.73
2019-05-23T09:53:47.285Z,100401.95
2019-05-23T09:56:17.179Z,100403.98
2019-05-23T09:58:49.013Z,100404.84
2019-05-23T10:01:21.537Z,100407.13
2019-05-23T10:03:53.319Z,100403.69
2019-05-23T10:06:28.109Z,100407.13
2019-05-23T10:09:00.077Z,100410.22
2019-05-23T10:11:31.896Z,100407.49
2019-05-23T10:14:05.351Z,100409.01
2019-05-23T10:16:39.272Z,100398.63
2019-05-23T10:19:11.087Z,100401.11
2019-05-23T10:21:42.861Z,100395.79
2019-05-23T10:24:15.608Z,100401.96
2019-05-23T10:26:47.368Z,100395.61
2019-05-23T10:29:19.129Z,100396.23
2019-05-23T10:31:50.901Z,100386.50
2019-05-23T10:34:22.666Z,100388.50
2019-05-23T10:36:56.041Z,100389.84
2019-05-23T10:39:30.176Z,100389.95
2019-05-23T10:42:03.782Z,100390.59
2019-05-23T10:44:35.762Z,100377.38
2019-05-23T10:47:07.495Z,100374.73
2019-05-23T10:49:39.357Z,100376.17
2019-05-23T10:52:11.118Z,100381.03
2019-05-23T10:54:42.824Z,100380.89
2019-05-23T10:57:14.687Z,100382.31
2019-05-23T10:59:46.552Z,100377.67
2019-05-23T11:02:19.857Z,100375.20
2019-05-23T11:04:53.004Z,100382.20
2019-05-23T11:07:25.959Z,100383.16
2019-05-23T11:09:57.747Z,100378.20
2019-05-23T11:12:29.727Z,100380.40
2019-05-23T11:15:01.516Z,100378.38
2019-05-23T11:17:35.702Z,100368.17
2019-05-23T11:20:09.315Z,100376.73
2019-05-23T11:22:41.046Z,100375.70
2019-05-23T11:25:15.510Z,100374.11
2019-05-23T11:27:49.047Z,100375.48
2019-05-23T11:30:27.298Z,100376.64
2019-05-23T11:32:59.731Z,100364.33
2019-05-23T11:35:31.816Z,100368.27
2019-05-23T11:38:03.623Z,100371.50
2019-05-23T11:40:36.199Z,100366.03
2019-05-23T11:43:07.902Z,100364.88
2019-05-23T11:45:52.491Z,100361.28
2019-05-23T11:48:27.784Z,100360.80
2019-05-23T11:50:59.591Z,100347.36
2019-05-23T11:53:31.638Z,100352.32
2019-05-23T11:56:03.342Z,100341.87
2019-05-23T11:58:35.131Z,100336.42
2019-05-23T12:01:33.399Z,100337.97
2019-05-23T12:04:15.569Z,100333.91
2019-05-23T12:06:55.802Z,100332.95
2019-05-23T12:09:26.984Z,100336.44
2019-05-23T12:11:58.805Z,100336.36
2019-05-23T12:14:30.966Z,100334.06
2019-05-23T12:17:02.922Z,100331.81
2019-05-23T12:19:34.758Z,100333.98
2019-05-23T12:22:06.591Z,100331.52
2019-05-23T12:24:38.575Z,100327.84
2019-05-23T12:27:10.319Z,100333.67
2019-05-23T12:29:42.176Z,100322.89
2019-05-23T12:32:14.403Z,100323.59
2019-05-23T12:35:08.145Z,100321.72
2019-05-23T12:37:20.997Z,100317.80
2019-05-23T12:39:53.632Z,100325.00
2019-05-23T12:42:25.528Z,100320.76
2019-05-23T12:44:57.240Z,100323.21
2019-05-23T12:47:46.753Z,100329.48
2019-05-23T12:50:22.238Z,100331.86
2019-05-23T12:52:54.695Z,100331.27
2019-05-23T12:55:26.415Z,100322.03
2019-05-23T12:57:58.179Z,100322.43
2019-05-23T13:00:47.418Z,100317.95
2019-05-23T13:03:20.944Z,100318.01
2019-05-23T13:05:53.502Z,100311.71
2019-05-23T13:08:25.207Z,100318.62
2019-05-23T13:10:56.971Z,100320.34
2019-05-23T13:13:29.138Z,100317.63
2019-05-23T13:16:00.928Z,100321.25
2019-05-23T13:18:32.725Z,100317.30
2019-05-23T13:21:04.921Z,100311.53
2019-05-23T13:23:36.878Z,100306.98
2019-05-23T13:26:08.780Z,100302.23
2019-05-23T13:28:41.592Z,100293.47
2019-05-23T13:31:13.345Z,100296.30
2019-05-23T13:33:47.285Z,100298.52
2019-05-23T13:36:19.015Z,100299.72
2019-05-23T13:38:51.455Z,100292.98
2019-05-23T13:41:24.825Z,100288.86
2019-05-23T13:43:57.814Z,100290.05
2019-05-23T13:46:29.578Z,100290.88
2019-05-23T13:49:03.877Z,100292.66
2019-05-23T13:51:35.819Z,100292.65
2019-05-23T13:54:07.678Z,100289.23
2019-05-23T13:56:39.394Z,100288.39
2019-05-23T13:59:11.179Z,100293.13
2019-05-23T14:01:44.038Z,100285.69
2019-05-23T14:04:17.859Z,100286.53
2019-05-23T14:06:49.887Z,100280.09
2019-05-23T14:09:23.613Z,100273.50
2019-05-23T14:12:19.935Z,100277.05
2019-05-23T14:14:31.393Z,100282.61
2019-05-23T14:17:21.811Z,100281.73
2019-05-23T14:19:55.105Z,100279.05
2019-05-23T14:22:27.542Z,100278.06
2019-05-23T14:24:59.374Z,100276.68
2019-05-23T14:27:50.308Z,100271.94
2019-05-23T14:30:39.700Z,100261.80
2019-05-23T14:33:26.020Z,100268.23
2019-05-23T14:36:01.334Z,100255.77
2019-05-23T14:38:36.324Z,100256.61
2019-05-23T14:41:08.384Z,100260.95
2019-05-23T14:43:42.436Z,100253.67
2019-05-23T14:46:17.554Z,100257.02
2019-05-23T14:49:07.762Z,100266.48
2019-05-23T14:51:57.319Z,100271.27
2019-05-23T14:54:40.349Z,100268.82
2019-05-23T14:57:14.473Z,100277.82
2019-05-23T14:59:46.810Z,100273.89
2019-05-23T15:02:20.825Z,100277.18
2019-05-23T15:04:52.604Z,100278.95
2019-05-23T15:07:26.817Z,100276.66
2019-05-23T15:09:58.572Z,100280.76
2019-05-23T15:12:32.000Z,100279.73
2019-05-23T15:15:06.954Z,100277.66
2019-05-23T15:17:40.299Z,100284.20
2019-05-23T15:20:13.413Z,100293.77
2019-05-23T15:22:45.213Z,100289.59
2019-05-23T15:25:17.156Z,100288.37
2019-05-23T15:27:48.864Z,100285.16
2019-05-23T15:30:20.679Z,100291.34
2019-05-23T15:32:52.379Z,100286.05
2019-05-23T15:35:26.388Z,100286.84
2019-05-23T15:37:58.149Z,100288.41
2019-05-23T15:40:32.731Z,100284.23
2019-05-23T15:43:04.660Z,100282.40
2019-05-23T15:45:36.532Z,100288.14
2019-05-23T15:48:08.377Z,100286.19
2019-05-23T15:50:47.848Z,100295.46
2019-05-23T15:53:35.009Z,100295.42
2019-05-23T15:56:26.702Z,100301.95
2019-05-23T15:58:54.562Z,100298.36
2019-05-23T16:01:34.951Z,100298.19
2019-05-23T16:04:14.693Z,100299.57
2019-05-23T16:06:48.081Z,100302.26
2019-05-23T16:09:29.264Z,100302.51
2019-05-23T16:11:54.867Z,100294.87
2019-05-23T16:14:26.856Z,100286.22
2019-05-23T16:16:58.806Z,100290.66
2019-05-23T16:19:32.987Z,100287.60
2019-05-23T16:22:05.347Z,100292.38
2019-05-23T16:24:37.119Z,100279.03
2019-05-23T16:27:10.457Z,100273.89
2019-05-23T16:29:43.302Z,100282.22
2019-05-23T16:32:15.073Z,100282.50
2019-05-23T16:34:47.144Z,100283.72
2019-05-23T16:37:19.268Z,100281.56
2019-05-23T16:39:51.666Z,100273.67
2019-05-23T16:42:23.503Z,100272.68
2019-05-23T16:44:56.821Z,100271.73
2019-05-23T16:47:28.999Z,100274.19
2019-05-23T16:50:00.781Z,100278.33
2019-05-23T16:52:32.672Z,100269.45
2019-05-23T16:55:10.129Z,100261.94
2019-05-23T16:57:55.120Z,100274.16
2019-05-23T17:00:50.594Z,100286.61
2019-05-23T17:03:41.316Z,100291.42
2019-05-23T17:06:41.674Z,100298.33
2019-05-23T17:09:34.751Z,100313.45
2019-05-23T17:12:37.314Z,100311.41
2019-05-23T17:15:17.152Z,100300.99
2019-05-23T17:18:02.634Z,100298.29
2019-05-23T17:20:53.313Z,100300.55
2019-05-23T17:23:45.029Z,100302.38
2019-05-23T17:26:26.322Z,100302.61
2019-05-23T17:29:00.137Z,100301.14
2019-05-23T17:31:35.597Z,100303.61
2019-05-23T17:34:08.317Z,100315.41
2019-05-23T17:36:41.580Z,100311.51
2019-05-23T17:39:15.442Z,100311.08
2019-05-23T17:41:48.865Z,100307.73
2019-05-23T17:44:20.814Z,100304.73
2019-05-23T17:46:52.623Z,100307.98
2019-05-23T17:49:24.435Z,100305.91
2019-05-23T17:51:57.907Z,100304.80
2019-05-23T17:54:30.137Z,100307.12
2019-05-23T17:57:02.278Z,100299.84
2019-05-23T17:59:34.210Z,100299.97
2019-05-23T18:02:07.498Z,100288.45
2019-05-23T18:04:39.383Z,100292.41
2019-05-23T18:07:13.184Z,100293.23
2019-05-23T18:09:44.918Z,100297.98
2019-05-23T18:12:18.371Z,100296.72
2019-05-23T18:14:52.406Z,100297.41
2019-05-23T18:17:24.181Z,100298.57
2019-05-23T18:19:57.716Z,100295.81
2019-05-23T18:22:30.136Z,100293.31
2019-05-23T18:25:02.091Z,100302.71
2019-05-23T18:27:34.172Z,100301.89
2019-05-23T18:30:07.979Z,100301.03
2019-05-23T18:32:40.605Z,100302.32
2019-05-23T18:35:15.999Z,100304.41
2019-05-23T18:37:49.601Z,100305.86
2019-05-23T18:40:22.701Z,100308.17
2019-05-23T18:42:54.495Z,100307.94
2019-05-23T18:45:26.332Z,100307.38
2019-05-23T18:47:58.521Z,100318.06
2019-05-23T18:50:35.044Z,100318.44
2019-05-23T18:53:08.486Z,100313.39
2019-05-23T18:55:40.820Z,100304.21
2019-05-23T18:58:12.823Z,100310.45
2019-05-23T19:01:20.255Z,100313.95
2019-05-23T19:03:52.121Z,100309.64
2019-05-23T19:06:25.553Z,100312.00
2019-05-23T19:08:57.367Z,100315.91
2019-05-23T19:11:29.869Z,100317.59
2019-05-23T19:14:01.641Z,100327.72
2019-05-23T19:16:35.738Z,100339.88
2019-05-23T19:19:07.509Z,100339.40
2019-05-23T19:21:39.779Z,100339.05
2019-05-23T19:24:13.421Z,100344.43
2019-05-23T19:26:47.664Z,100342.48
2019-05-23T19:29:19.834Z,100339.21
2019-05-23T19:31:51.911Z,100343.95
2019-05-23T19:34:23.907Z,100338.13
2019-05-23T19:36:55.763Z,100335.69
2019-05-23T19:39:28.039Z,100335.45
2019-05-23T19:42:01.108Z,100333.02
2019-05-23T19:44:34.524Z,100333.59
2019-05-23T19:47:06.688Z,100339.91
2019-05-23T19:49:39.084Z,100338.82
2019-05-23T19:52:11.762Z,100341.87
2019-05-23T19:54:43.674Z,100339.77
2019-05-23T19:57:15.510Z,100355.94
2019-05-23T19:59:47.286Z,100365.31
2019-05-23T20:02:39.878Z,100373.99
2019-05-23T20:05:20.468Z,100381.80
2019-05-23T20:07:53.990Z,100395.11
2019-05-23T20:10:26.670Z,100386.80
2019-05-23T20:12:58.866Z,100379.43
2019-05-23T20:15:30.806Z,100392.36
2019-05-23T20:18:02.637Z,100389.81
2019-05-23T20:20:35.497Z,100390.33
2019-05-23T20:23:08.505Z,100378.98
2019-05-23T20:25:40.458Z,100382.06
2019-05-23T20:28:12.344Z,100382.23
2019-05-23T20:30:54.537Z,100382.66
2019-05-23T20:33:30.850Z,100381.07
2019-05-23T20:36:04.813Z,100385.03
2019-05-23T20:38:37.241Z,100382.31
2019-05-23T20:41:11.046Z,100390.67
2019-05-23T20:43:44.945Z,100389.52
2019-05-23T20:46:18.620Z,100391.76
2019-05-23T20:48:52.054Z,100385.42
2019-05-23T20:51:25.232Z,100377.48
2019-05-23T20:53:57.345Z,100399.76
2019-05-23T20:56:29.751Z,100403.33
2019-05-23T20:59:01.576Z,100407.39
2019-05-23T21:01:37.376Z,100409.70
2019-05-23T21:04:09.202Z,100412.37
2019-05-23T21:06:41.034Z,100410.94
2019-05-23T21:09:15.817Z,100417.23
2019-05-23T21:11:48.269Z,100410.68
2019-05-23T21:14:21.753Z,100409.13
2019-05-23T21:16:55.155Z,100405.30
2019-05-23T21:19:28.567Z,100402.98
2019-05-23T21:22:00.341Z,100404.80
2019-05-23T21:24:33.296Z,100403.70
2019-05-23T21:27:05.077Z,100408.24
2019-05-23T21:29:38.146Z,100398.72
2019-05-23T21:32:11.652Z,100391.77
2019-05-23T21:34:45.039Z,100384.97
2019-05-23T21:37:17.959Z,100387.43
2019-05-23T21:39:49.881Z,100396.15
2019-05-23T21:42:21.616Z,100407.33
2019-05-23T21:44:53.369Z,100416.50
2019-05-23T21:47:25.242Z,100416.78
2019-05-23T21:49:57.005Z,100421.02
2019-05-23T21:52:30.459Z,100422.00
2019-05-23T21:55:02.242Z,100427.33
2019-05-23T21:57:35.410Z,100424.27
2019-05-23T22:00:10.481Z,100425.34
2019-05-23T22:02:44.246Z,100432.90
2019-05-23T22:05:17.639Z,100431.88
2019-05-23T22:07:49.450Z,100430.03
2019-05-23T22:10:23.812Z,100429.05
2019-05-23T22:13:03.966Z,100427.25
2019-05-23T22:15:37.393Z,100416.80
2019-05-23T22:18:09.259Z,100413.17
2019-05-23T22:20:41.093Z,100415.22
2019-05-23T22:23:12.859Z,100421.02
2019-05-23T22:25:46.211Z,100416.08
2019-05-23T22:28:18.139Z,100414.05
2019-05-23T22:30:50.022Z,100413.53
2019-05-23T22:33:24.048Z,100419.00
2019-05-23T22:35:56.339Z,100427.46
2019-05-23T22:38:28.094Z,100426.41
2019-05-23T22:41:01.454Z,100421.72
2019-05-23T22:43:33.258Z,100418.94
2019-05-23T22:46:06.707Z,100418.94
2019-05-23T22:48:38.502Z,100413.00
2019-05-23T22:51:11.961Z,100409.81
2019-05-23T22:53:43.678Z,100405.63
2019-05-23T22:56:15.602Z,100403.33
2019-05-23T22:58:47.338Z,100415.48
2019-05-23T23:01:19.239Z,100417.78
2019-05-23T23:03:50.970Z,100416.27
2019-05-23T23:06:24.847Z,100424.80
2019-05-23T23:08:59.695Z,100422.28
2019-05-23T23:11:35.405Z,100419.56
2019-05-23T23:14:08.750Z,100414.28
2019-05-23T23:19:29.235Z,100412.01
2019-05-23T23:22:00.955Z,100421.33
2019-05-23T23:24:34.165Z,100428.55
2019-05-23T23:27:08.406Z,100426.55
2019-05-23T23:29:40.205Z,100421.13
2019-05-23T23:32:13.808Z,100421.73
2019-05-23T23:34:47.797Z,100424.20
2019-05-23T23:37:24.159Z,100410.22
2019-05-23T23:39:57.628Z,100410.63
2019-05-23T23:42:29.389Z,100401.20
2019-05-23T23:45:18.564Z,100400.56
2019-05-23T23:48:08.848Z,100402.19
2019-05-23T23:53:50.108Z,100409.96
2019-05-23T23:56:41.124Z,100410.32
2019-05-23T23:59:13.394Z,100409.09
